Lohn, Texas
Current Conditions -  °F | °C
As of 10:35 AM on Friday 24 Oct 2014 (Local Time) from KBBD Reporting Station
Clear Clear  
Wind Chill: 75°   Ceiling: Unl
Heat Index: 75°   Visibility: 10mi
Dew Point: 57°   Wind: 9mph
Humidity: 53%   Direction: 220°SW
Pressure: 30.19"   Gusts: NA
Location:  31.33°N, 99.4°W
Report Text: KBBD 241535Z AUTO 22008KT 10SM CLR 24/14 A3019 RMK
Loading
Personal Weather Stations






























Interactive Weather Map
Tropical Storm Tracking
New forecast layout! Learn more

10-Day Weather Forecast

Advertisements
Track Severe Weather on mobile